createdAt,value
2023-05-09T00:00:11.984Z,1014.73
2023-05-09T00:01:11.995Z,1014.77
2023-05-09T00:02:12.018Z,1014.66
2023-05-09T00:03:12.007Z,1014.66
2023-05-09T00:04:11.979Z,1014.66
2023-05-09T00:05:12.175Z,1014.61
2023-05-09T00:06:11.904Z,1014.61
2023-05-09T00:07:11.900Z,1014.56
2023-05-09T00:08:11.886Z,1014.61
2023-05-09T00:09:11.858Z,1014.59
2023-05-09T00:10:11.893Z,1014.55
2023-05-09T00:11:11.860Z,1014.58
2023-05-09T00:12:11.822Z,1014.57
2023-05-09T00:13:11.823Z,1014.60
2023-05-09T00:14:11.806Z,1014.57
2023-05-09T00:15:12.030Z,1014.56
2023-05-09T00:16:11.782Z,1014.57
2023-05-09T00:17:11.743Z,1014.56
2023-05-09T00:18:11.737Z,1014.56
2023-05-09T00:19:11.746Z,1014.55
2023-05-09T00:20:11.753Z,1014.57
2023-05-09T00:21:11.696Z,1014.55
2023-05-09T00:22:11.682Z,1014.56
2023-05-09T00:23:11.664Z,1014.58
2023-05-09T00:24:11.703Z,1014.57
2023-05-09T00:25:11.809Z,1014.57
2023-05-09T00:26:11.652Z,1014.53
2023-05-09T00:27:11.632Z,1014.51
2023-05-09T00:28:11.609Z,1014.47
2023-05-09T00:29:11.595Z,1014.47
2023-05-09T00:30:11.584Z,1014.46
2023-05-09T00:31:11.556Z,1014.43
2023-05-09T00:32:11.611Z,1014.40
2023-05-09T00:33:11.644Z,1014.35
2023-05-09T00:34:11.520Z,1014.34
2023-05-09T00:35:11.600Z,1014.32
2023-05-09T00:36:11.490Z,1014.32
2023-05-09T00:37:11.482Z,1014.32
2023-05-09T00:38:11.489Z,1014.28
2023-05-09T00:39:11.440Z,1014.30
2023-05-09T00:40:11.477Z,1014.27
2023-05-09T00:41:11.423Z,1014.23
2023-05-09T00:42:11.433Z,1014.23
2023-05-09T00:43:11.404Z,1014.21
2023-05-09T00:44:11.385Z,1014.22
2023-05-09T00:45:11.410Z,1014.21
2023-05-09T00:46:11.374Z,1014.21
2023-05-09T00:47:11.350Z,1014.20
2023-05-09T00:48:11.322Z,1014.17
2023-05-09T00:49:11.322Z,1014.13
2023-05-09T00:50:11.299Z,1014.12
2023-05-09T00:51:11.293Z,1014.09
2023-05-09T00:52:11.290Z,1014.13
2023-05-09T00:53:11.265Z,1014.08
2023-05-09T00:54:11.254Z,1014.12
2023-05-09T00:55:11.303Z,1014.07
2023-05-09T00:56:11.278Z,1014.08
2023-05-09T00:57:11.280Z,1014.09
2023-05-09T00:58:11.224Z,1014.07
2023-05-09T00:59:11.165Z,1014.07
2023-05-09T01:00:11.164Z,1014.09
2023-05-09T01:01:11.192Z,1014.08
2023-05-09T01:02:11.247Z,1014.06
2023-05-09T01:03:11.191Z,1014.03
2023-05-09T01:04:11.110Z,1014.05
2023-05-09T01:05:11.169Z,1014.02
2023-05-09T01:06:11.093Z,1013.99
2023-05-09T01:07:11.100Z,1013.98
2023-05-09T01:08:11.066Z,1013.95
2023-05-09T01:09:11.041Z,1013.94
2023-05-09T01:10:11.034Z,1013.99
2023-05-09T01:11:11.045Z,1013.97
2023-05-09T01:12:11.012Z,1013.98
2023-05-09T01:13:11.059Z,1013.95
2023-05-09T01:14:10.992Z,1013.95
2023-05-09T01:15:11.071Z,1013.97
2023-05-09T01:16:11.038Z,1013.98
2023-05-09T01:17:10.940Z,1013.96
2023-05-09T01:18:10.949Z,1013.92
2023-05-09T01:19:10.907Z,1013.92
2023-05-09T01:20:10.931Z,1013.93
2023-05-09T01:21:10.879Z,1013.92
2023-05-09T01:22:10.872Z,1013.90
2023-05-09T01:23:10.859Z,1013.89
2023-05-09T01:24:10.863Z,1013.94
2023-05-09T01:25:10.859Z,1013.88
2023-05-09T01:26:10.994Z,1013.87
2023-05-09T01:27:10.791Z,1013.87
2023-05-09T01:28:10.799Z,1013.84
2023-05-09T01:29:10.797Z,1013.89
2023-05-09T01:30:10.772Z,1013.82
2023-05-09T01:31:10.758Z,1013.85
2023-05-09T01:32:10.730Z,1013.77
2023-05-09T01:33:10.751Z,1013.78
2023-05-09T01:34:10.732Z,1013.74
2023-05-09T01:35:10.688Z,1013.76
2023-05-09T01:36:10.676Z,1013.78
2023-05-09T01:37:10.655Z,1013.78
2023-05-09T01:38:10.665Z,1013.78
2023-05-09T01:39:10.681Z,1013.81
2023-05-09T01:40:10.652Z,1013.81
2023-05-09T01:41:10.610Z,1013.77
2023-05-09T01:42:10.592Z,1013.81
2023-05-09T01:43:10.587Z,1013.78
2023-05-09T01:44:10.640Z,1013.79
2023-05-09T01:45:10.557Z,1013.72
2023-05-09T01:46:10.575Z,1013.71
2023-05-09T01:47:10.523Z,1013.77
2023-05-09T01:48:10.549Z,1013.75
2023-05-09T01:49:10.529Z,1013.72
2023-05-09T01:50:10.502Z,1013.73
2023-05-09T01:51:10.471Z,1013.74
2023-05-09T01:52:10.487Z,1013.76
2023-05-09T01:53:10.461Z,1013.76
2023-05-09T01:54:10.445Z,1013.73
2023-05-09T01:55:10.427Z,1013.69
2023-05-09T01:56:10.422Z,1013.69
2023-05-09T01:57:10.410Z,1013.71
2023-05-09T01:58:10.388Z,1013.73
2023-05-09T01:59:10.362Z,1013.71
2023-05-09T02:00:10.360Z,1013.74
2023-05-09T02:01:10.384Z,1013.71
2023-05-09T02:02:10.434Z,1013.75
2023-05-09T02:03:10.378Z,1013.75
2023-05-09T02:04:10.293Z,1013.77
2023-05-09T02:05:10.312Z,1013.75
2023-05-09T02:06:10.271Z,1013.74
2023-05-09T02:07:10.271Z,1013.72
2023-05-09T02:08:10.257Z,1013.73
2023-05-09T02:09:10.227Z,1013.76
2023-05-09T02:10:10.240Z,1013.72
2023-05-09T02:11:10.199Z,1013.70
2023-05-09T02:12:10.220Z,1013.69
2023-05-09T02:13:10.202Z,1013.69
2023-05-09T02:14:10.174Z,1013.68
2023-05-09T02:15:10.149Z,1013.66
2023-05-09T02:16:10.195Z,1013.63
2023-05-09T02:17:10.137Z,1013.61
2023-05-09T02:18:10.123Z,1013.64
2023-05-09T02:19:10.091Z,1013.63
2023-05-09T02:20:10.089Z,1013.62
2023-05-09T02:21:10.135Z,1013.64
2023-05-09T02:22:10.066Z,1013.68
2023-05-09T02:23:10.076Z,1013.61
2023-05-09T02:24:10.042Z,1013.60
2023-05-09T02:25:10.042Z,1013.66
2023-05-09T02:26:10.126Z,1013.65
2023-05-09T02:27:10.000Z,1013.68
2023-05-09T02:28:09.997Z,1013.65
2023-05-09T02:29:09.957Z,1013.69
2023-05-09T02:30:10.004Z,1013.66
2023-05-09T02:31:09.935Z,1013.70
2023-05-09T02:32:10.026Z,1013.72
2023-05-09T02:33:09.930Z,1013.72
2023-05-09T02:34:09.910Z,1013.72
2023-05-09T02:35:09.882Z,1013.71
2023-05-09T02:36:09.874Z,1013.74
2023-05-09T02:37:09.857Z,1013.72
2023-05-09T02:38:09.837Z,1013.72
2023-05-09T02:39:09.846Z,1013.73
2023-05-09T02:40:09.813Z,1013.66
2023-05-09T02:41:09.785Z,1013.68
2023-05-09T02:42:09.778Z,1013.68
2023-05-09T02:43:09.758Z,1013.67
2023-05-09T02:44:09.788Z,1013.62
2023-05-09T02:45:09.732Z,1013.60
2023-05-09T02:46:09.772Z,1013.61
2023-05-09T02:47:09.698Z,1013.63
2023-05-09T02:48:09.776Z,1013.60
2023-05-09T02:49:11.364Z,1013.59
2023-05-09T02:50:10.700Z,1013.62
2023-05-09T02:51:09.674Z,1013.61
2023-05-09T02:52:09.652Z,1013.57
2023-05-09T02:53:09.654Z,1013.56
2023-05-09T02:54:09.614Z,1013.59
2023-05-09T02:55:09.588Z,1013.64
2023-05-09T02:56:09.597Z,1013.59
2023-05-09T02:57:09.588Z,1013.57
2023-05-09T02:58:13.501Z,1013.55
2023-05-09T02:59:09.551Z,1013.57
2023-05-09T03:00:09.556Z,1013.55
2023-05-09T03:01:09.525Z,1013.54
2023-05-09T03:02:09.540Z,1013.52
2023-05-09T03:03:09.586Z,1013.51
2023-05-09T03:04:09.485Z,1013.49
2023-05-09T03:05:09.465Z,1013.44
2023-05-09T03:06:09.458Z,1013.44
2023-05-09T03:07:09.446Z,1013.43
2023-05-09T03:08:09.436Z,1013.48
2023-05-09T03:09:09.403Z,1013.47
2023-05-09T03:10:09.398Z,1013.49
2023-05-09T03:11:09.382Z,1013.53
2023-05-09T03:12:09.403Z,1013.53
2023-05-09T03:13:09.415Z,1013.55
2023-05-09T03:14:09.351Z,1013.56
2023-05-09T03:15:09.333Z,1013.55
2023-05-09T03:16:09.345Z,1013.51
2023-05-09T03:17:09.333Z,1013.53
2023-05-09T03:18:09.311Z,1013.49
2023-05-09T03:19:09.283Z,1013.54
2023-05-09T03:20:09.251Z,1013.54
2023-05-09T03:21:09.294Z,1013.51
2023-05-09T03:22:09.253Z,1013.53
2023-05-09T03:23:09.219Z,1013.52
2023-05-09T03:24:09.212Z,1013.55
2023-05-09T03:25:09.197Z,1013.56
2023-05-09T03:26:09.198Z,1013.54
2023-05-09T03:27:09.231Z,1013.50
2023-05-09T03:28:09.150Z,1013.54
2023-05-09T03:29:09.175Z,1013.55
2023-05-09T03:30:09.141Z,1013.52
2023-05-09T03:31:09.194Z,1013.51
2023-05-09T03:32:09.098Z,1013.49
2023-05-09T03:33:09.167Z,1013.48
2023-05-09T03:34:09.075Z,1013.45
2023-05-09T03:35:09.090Z,1013.44
2023-05-09T03:36:09.030Z,1013.44
2023-05-09T03:37:09.029Z,1013.46
2023-05-09T03:38:09.035Z,1013.47
2023-05-09T03:39:09.021Z,1013.45
2023-05-09T03:40:09.028Z,1013.42
2023-05-09T03:41:08.983Z,1013.41
2023-05-09T03:42:08.957Z,1013.38
2023-05-09T03:43:08.955Z,1013.30
2023-05-09T03:44:08.952Z,1013.33
2023-05-09T03:45:08.950Z,1013.31
2023-05-09T03:46:08.907Z,1013.28
2023-05-09T03:47:08.904Z,1013.29
2023-05-09T03:48:08.899Z,1013.29
2023-05-09T03:49:08.915Z,1013.33
2023-05-09T03:50:08.865Z,1013.33
2023-05-09T03:51:08.840Z,1013.33
2023-05-09T03:52:08.822Z,1013.31
2023-05-09T03:53:08.835Z,1013.32
2023-05-09T03:54:08.815Z,1013.28
2023-05-09T03:55:08.785Z,1013.28
2023-05-09T03:56:08.762Z,1013.29
2023-05-09T03:57:08.771Z,1013.28
2023-05-09T03:58:08.765Z,1013.22
2023-05-09T03:59:08.743Z,1013.21
2023-05-09T04:00:08.710Z,1013.21
2023-05-09T04:01:08.702Z,1013.16
2023-05-09T04:02:08.724Z,1013.18
2023-05-09T04:03:08.762Z,1013.14
2023-05-09T04:04:08.736Z,1013.13
2023-05-09T04:05:08.663Z,1013.11
2023-05-09T04:06:08.633Z,1013.15
2023-05-09T04:07:08.632Z,1013.13
2023-05-09T04:08:08.631Z,1013.12
2023-05-09T04:09:08.639Z,1013.10
2023-05-09T04:10:08.604Z,1013.13
2023-05-09T04:11:08.584Z,1013.11
2023-05-09T04:12:08.574Z,1013.08
2023-05-09T04:13:08.677Z,1013.07
2023-05-09T04:14:08.508Z,1013.03
2023-05-09T04:15:08.518Z,1013.04
2023-05-09T04:16:08.504Z,1013.01
2023-05-09T04:17:08.577Z,1013.02
2023-05-09T04:18:08.522Z,1013.02
2023-05-09T04:19:08.459Z,1013.00
2023-05-09T04:20:08.428Z,1013.00
2023-05-09T04:21:08.500Z,1012.95
2023-05-09T04:22:08.425Z,1012.98
2023-05-09T04:23:08.421Z,1012.95
2023-05-09T04:24:08.401Z,1012.97
2023-05-09T04:25:08.385Z,1012.89
2023-05-09T04:26:08.380Z,1012.89
2023-05-09T04:27:08.353Z,1012.92
2023-05-09T04:28:08.361Z,1012.81
2023-05-09T04:29:08.342Z,1012.80
2023-05-09T04:30:08.319Z,1012.81
2023-05-09T04:31:08.469Z,1012.80
2023-05-09T04:32:08.305Z,1012.82
2023-05-09T04:33:08.294Z,1012.82
2023-05-09T04:34:08.276Z,1012.86
2023-05-09T04:35:08.299Z,1012.85
2023-05-09T04:36:08.255Z,1012.84
2023-05-09T04:37:08.323Z,1012.84
2023-05-09T04:38:08.196Z,1012.88
2023-05-09T04:39:08.229Z,1012.87
2023-05-09T04:40:08.181Z,1012.88
2023-05-09T04:41:08.190Z,1012.85
2023-05-09T04:42:08.164Z,1012.86
2023-05-09T04:43:08.167Z,1012.89
2023-05-09T04:44:08.112Z,1012.83
2023-05-09T04:45:08.125Z,1012.85
2023-05-09T04:46:08.169Z,1012.84
2023-05-09T04:47:08.087Z,1012.88
2023-05-09T04:48:08.101Z,1012.90
2023-05-09T04:49:08.067Z,1012.91
2023-05-09T04:50:08.051Z,1012.90
2023-05-09T04:51:08.042Z,1012.90
2023-05-09T04:52:08.000Z,1012.96
2023-05-09T04:53:08.005Z,1012.87
2023-05-09T04:54:08.018Z,1012.92
2023-05-09T04:55:07.980Z,1012.88
2023-05-09T04:56:07.980Z,1012.87
2023-05-09T04:57:17.429Z,1012.88
2023-05-09T04:58:08.933Z,1012.84
2023-05-09T04:59:07.912Z,1012.86
2023-05-09T05:00:07.934Z,1012.85
2023-05-09T05:01:07.885Z,1012.84
2023-05-09T05:02:07.926Z,1012.83
2023-05-09T05:03:07.973Z,1012.80
2023-05-09T05:04:07.865Z,1012.80
2023-05-09T05:05:12.032Z,1012.82
2023-05-09T05:06:07.827Z,1012.79
2023-05-09T05:07:07.813Z,1012.81
2023-05-09T05:08:07.808Z,1012.70
2023-05-09T05:09:07.787Z,1012.72
2023-05-09T05:10:07.769Z,1012.69
2023-05-09T05:11:07.751Z,1012.70
2023-05-09T05:12:09.556Z,1012.69
2023-05-09T05:13:07.799Z,1012.67
2023-05-09T05:14:07.712Z,1012.68
2023-05-09T05:15:07.706Z,1012.67
2023-05-09T05:16:07.717Z,1012.64
2023-05-09T05:17:07.721Z,1012.66
2023-05-09T05:18:07.710Z,1012.64
2023-05-09T05:19:07.670Z,1012.62
2023-05-09T05:20:07.628Z,1012.60
2023-05-09T05:21:07.631Z,1012.60
2023-05-09T05:22:07.633Z,1012.59
2023-05-09T05:23:07.628Z,1012.56
2023-05-09T05:24:07.642Z,1012.58
2023-05-09T05:25:07.573Z,1012.57
2023-05-09T05:26:07.549Z,1012.55
2023-05-09T05:27:07.553Z,1012.57
2023-05-09T05:28:07.529Z,1012.52
2023-05-09T05:29:07.515Z,1012.49
2023-05-09T05:30:07.506Z,1012.48
2023-05-09T05:31:07.643Z,1012.45
2023-05-09T05:32:07.484Z,1012.39
2023-05-09T05:33:07.551Z,1012.39
2023-05-09T05:34:07.445Z,1012.37
2023-05-09T05:35:07.434Z,1012.31
2023-05-09T05:36:07.422Z,1012.32
2023-05-09T05:37:07.401Z,1012.36
2023-05-09T05:38:07.384Z,1012.35
2023-05-09T05:39:07.368Z,1012.39
2023-05-09T05:40:07.360Z,1012.35
2023-05-09T05:41:07.384Z,1012.34
2023-05-09T05:42:07.536Z,1012.32
2023-05-09T05:43:07.328Z,1012.26
2023-05-09T05:44:07.307Z,1012.28
2023-05-09T05:45:07.303Z,1012.30
2023-05-09T05:46:07.334Z,1012.30
2023-05-09T05:47:07.285Z,1012.26
2023-05-09T05:48:07.282Z,1012.30
2023-05-09T05:49:07.252Z,1012.37
2023-05-09T05:50:07.219Z,1012.31
2023-05-09T05:51:07.218Z,1012.32
2023-05-09T05:52:07.194Z,1012.31
2023-05-09T05:53:07.198Z,1012.26
2023-05-09T05:54:07.180Z,1012.22
2023-05-09T05:55:07.169Z,1012.22
2023-05-09T05:56:07.139Z,1012.18
2023-05-09T05:57:07.135Z,1012.14
2023-05-09T05:58:07.129Z,1012.17
2023-05-09T05:59:07.119Z,1012.19
2023-05-09T06:00:07.335Z,1012.18
2023-05-09T06:01:07.074Z,1012.18
2023-05-09T06:02:07.070Z,1012.22
2023-05-09T06:03:07.147Z,1012.21
2023-05-09T06:04:07.098Z,1012.24
2023-05-09T06:05:07.017Z,1012.19
2023-05-09T06:06:07.007Z,1012.22
2023-05-09T06:07:06.986Z,1012.24
2023-05-09T06:08:07.037Z,1012.18
2023-05-09T06:09:07.017Z,1012.17
2023-05-09T06:10:06.961Z,1012.17
2023-05-09T06:11:07.025Z,1012.12
2023-05-09T06:12:06.913Z,1012.04
2023-05-09T06:13:06.966Z,1012.06
2023-05-09T06:14:06.910Z,1012.05
2023-05-09T06:15:06.923Z,1012.02
2023-05-09T06:16:18.725Z,1012.04
2023-05-09T06:17:07.944Z,1012.00
2023-05-09T06:18:06.869Z,1011.96
2023-05-09T06:19:06.830Z,1011.94
2023-05-09T06:20:06.806Z,1011.94
2023-05-09T06:21:06.801Z,1011.91
2023-05-09T06:22:06.773Z,1011.90
2023-05-09T06:23:06.786Z,1011.88
2023-05-09T06:24:14.245Z,1011.87
2023-05-09T06:25:10.137Z,1011.87
2023-05-09T06:26:06.731Z,1011.85
2023-05-09T06:27:06.739Z,1011.88
2023-05-09T06:28:06.715Z,1011.84
2023-05-09T06:29:06.686Z,1011.82
2023-05-09T06:30:23.829Z,1011.82
2023-05-09T06:31:07.677Z,1011.79
2023-05-09T06:32:06.666Z,1011.76
2023-05-09T06:33:06.655Z,1011.72
2023-05-09T06:34:06.636Z,1011.70
2023-05-09T06:35:06.599Z,1011.67
2023-05-09T06:36:06.589Z,1011.71
2023-05-09T06:37:06.626Z,1011.64
2023-05-09T06:38:06.569Z,1011.63
2023-05-09T06:39:06.555Z,1011.58
2023-05-09T06:40:06.539Z,1011.60
2023-05-09T06:41:06.545Z,1011.57
2023-05-09T06:42:06.532Z,1011.52
2023-05-09T06:43:06.518Z,1011.55
2023-05-09T06:44:06.488Z,1011.57
2023-05-09T06:45:06.520Z,1011.59
2023-05-09T06:46:06.520Z,1011.54
2023-05-09T06:47:06.465Z,1011.55
2023-05-09T06:48:06.500Z,1011.52
2023-05-09T06:49:06.443Z,1011.58
2023-05-09T06:50:06.417Z,1011.54
2023-05-09T06:51:06.430Z,1011.54
2023-05-09T06:52:06.421Z,1011.51
2023-05-09T06:53:06.365Z,1011.54
2023-05-09T06:54:06.348Z,1011.50
2023-05-09T06:55:06.364Z,1011.48
2023-05-09T06:56:06.343Z,1011.48
2023-05-09T06:57:06.311Z,1011.45
2023-05-09T06:58:06.309Z,1011.40
2023-05-09T06:59:06.351Z,1011.40
2023-05-09T07:00:06.295Z,1011.43
2023-05-09T07:01:06.261Z,1011.39
2023-05-09T07:02:06.337Z,1011.41
2023-05-09T07:03:06.294Z,1011.38
2023-05-09T07:04:06.250Z,1011.35
2023-05-09T07:05:06.360Z,1011.31
2023-05-09T07:06:06.194Z,1011.33
2023-05-09T07:07:06.217Z,1011.32
2023-05-09T07:08:06.202Z,1011.34
2023-05-09T07:09:06.202Z,1011.33
2023-05-09T07:10:11.398Z,1011.34
2023-05-09T07:11:07.125Z,1011.33
2023-05-09T07:12:06.107Z,1011.30
2023-05-09T07:13:06.137Z,1011.32
2023-05-09T07:14:06.101Z,1011.28
2023-05-09T07:15:06.066Z,1011.25
2023-05-09T07:16:06.171Z,1011.29
2023-05-09T07:17:21.740Z,1011.25
2023-05-09T07:18:07.090Z,1011.25
2023-05-09T07:19:06.065Z,1011.23
2023-05-09T07:20:06.010Z,1011.22
2023-05-09T07:21:05.983Z,1011.15
2023-05-09T07:22:05.998Z,1011.17
2023-05-09T07:23:06.095Z,1011.12
2023-05-09T07:24:05.965Z,1011.11
2023-05-09T07:25:05.935Z,1011.13
2023-05-09T07:26:05.909Z,1011.14
2023-05-09T07:27:05.904Z,1011.13
2023-05-09T07:28:05.883Z,1011.12
2023-05-09T07:29:05.888Z,1011.09
2023-05-09T07:30:05.863Z,1011.06
2023-05-09T07:31:05.853Z,1011.09
2023-05-09T07:32:05.866Z,1011.09
2023-05-09T07:33:05.872Z,1011.09
2023-05-09T07:34:05.809Z,1011.10
2023-05-09T07:35:05.810Z,1011.09
2023-05-09T07:36:05.779Z,1011.09
2023-05-09T07:37:05.784Z,1011.08
2023-05-09T07:38:05.772Z,1011.07
2023-05-09T07:39:05.726Z,1011.06
2023-05-09T07:40:05.737Z,1011.02
2023-05-09T07:41:05.709Z,1011.01
2023-05-09T07:42:05.728Z,1011.01
2023-05-09T07:43:05.690Z,1010.99
2023-05-09T07:44:05.671Z,1010.99
2023-05-09T07:45:05.643Z,1011.01
2023-05-09T07:46:05.687Z,1011.00
2023-05-09T07:47:05.634Z,1010.96
2023-05-09T07:48:05.670Z,1010.94
2023-05-09T07:49:05.601Z,1010.95
2023-05-09T07:50:05.577Z,1010.91
2023-05-09T07:51:05.601Z,1010.85
2023-05-09T07:52:05.583Z,1010.87
2023-05-09T07:53:05.551Z,1010.86
2023-05-09T07:54:05.538Z,1010.83
2023-05-09T07:55:05.506Z,1010.80
2023-05-09T07:56:05.509Z,1010.85
2023-05-09T07:57:05.480Z,1010.76
2023-05-09T07:58:05.470Z,1010.78
2023-05-09T07:59:05.450Z,1010.78
2023-05-09T08:00:05.437Z,1010.75
2023-05-09T08:01:05.442Z,1010.73
2023-05-09T08:02:05.501Z,1010.74
2023-05-09T08:03:05.579Z,1010.75
2023-05-09T08:04:05.455Z,1010.70
2023-05-09T08:05:05.371Z,1010.68
2023-05-09T08:06:05.394Z,1010.67
2023-05-09T08:07:05.341Z,1010.66
2023-05-09T08:08:05.349Z,1010.61
2023-05-09T08:09:05.329Z,1010.62
2023-05-09T08:10:05.333Z,1010.65
2023-05-09T08:11:05.296Z,1010.59
2023-05-09T08:12:05.293Z,1010.53
2023-05-09T08:13:05.276Z,1010.53
2023-05-09T08:14:05.256Z,1010.50
2023-05-09T08:15:05.287Z,1010.52
2023-05-09T08:16:05.262Z,1010.54
2023-05-09T08:17:05.211Z,1010.51
2023-05-09T08:18:05.242Z,1010.47
2023-05-09T08:19:05.231Z,1010.46
2023-05-09T08:20:05.195Z,1010.51
2023-05-09T08:21:05.164Z,1010.44
2023-05-09T08:22:05.161Z,1010.43
2023-05-09T08:23:05.131Z,1010.44
2023-05-09T08:24:05.161Z,1010.36
2023-05-09T08:25:05.111Z,1010.37
2023-05-09T08:26:05.092Z,1010.34
2023-05-09T08:27:05.079Z,1010.24
2023-05-09T08:28:05.061Z,1010.27
2023-05-09T08:29:05.065Z,1010.26
2023-05-09T08:30:05.215Z,1010.30
2023-05-09T08:31:05.072Z,1010.33
2023-05-09T08:32:05.021Z,1010.31
2023-05-09T08:33:05.081Z,1010.27
2023-05-09T08:34:05.014Z,1010.27
2023-05-09T08:35:04.977Z,1010.25
2023-05-09T08:36:04.965Z,1010.25
2023-05-09T08:37:04.934Z,1010.22
2023-05-09T08:38:04.957Z,1010.26
2023-05-09T08:39:04.937Z,1010.21
2023-05-09T08:40:04.924Z,1010.18
2023-05-09T08:41:04.892Z,1010.22
2023-05-09T08:42:04.910Z,1010.18
2023-05-09T08:43:04.887Z,1010.19
2023-05-09T08:44:04.899Z,1010.14
2023-05-09T08:45:04.842Z,1010.12
2023-05-09T08:46:04.851Z,1010.07
2023-05-09T08:47:04.862Z,1010.06
2023-05-09T08:48:04.849Z,1010.09
2023-05-09T08:49:04.810Z,1010.06
2023-05-09T08:50:04.775Z,1010.00
2023-05-09T08:51:04.749Z,1009.98
2023-05-09T08:52:04.771Z,1009.99
2023-05-09T08:53:04.758Z,1009.94
2023-05-09T08:54:04.720Z,1009.97
2023-05-09T08:55:04.711Z,1009.94
2023-05-09T08:56:04.708Z,1009.88
2023-05-09T08:57:04.690Z,1009.90
2023-05-09T08:58:04.667Z,1009.87
2023-05-09T08:59:04.639Z,1009.88
2023-05-09T09:00:04.650Z,1009.85
2023-05-09T09:01:04.659Z,1009.92
2023-05-09T09:02:04.713Z,1009.84
2023-05-09T09:03:04.620Z,1009.85
2023-05-09T09:04:04.583Z,1009.80
2023-05-09T09:05:04.613Z,1009.71
2023-05-09T09:06:04.591Z,1009.76
2023-05-09T09:07:04.526Z,1009.78
2023-05-09T09:08:04.549Z,1009.73
2023-05-09T09:09:04.514Z,1009.72
2023-05-09T09:10:04.534Z,1009.72
2023-05-09T09:11:04.528Z,1009.68
2023-05-09T09:12:04.477Z,1009.69
2023-05-09T09:13:04.611Z,1009.67
2023-05-09T09:14:04.452Z,1009.64
2023-05-09T09:15:04.465Z,1009.63
2023-05-09T09:16:04.455Z,1009.60
2023-05-09T09:17:04.459Z,1009.63
2023-05-09T09:18:06.038Z,1009.61
2023-05-09T09:19:04.366Z,1009.66
2023-05-09T09:20:04.360Z,1009.67
2023-05-09T09:21:04.334Z,1009.63
2023-05-09T09:22:04.368Z,1009.64
2023-05-09T09:23:04.317Z,1009.64
2023-05-09T09:24:04.320Z,1009.64
2023-05-09T09:25:04.292Z,1009.60
2023-05-09T09:26:04.298Z,1009.55
2023-05-09T09:27:04.290Z,1009.56
2023-05-09T09:28:04.268Z,1009.56
2023-05-09T09:29:04.246Z,1009.54
2023-05-09T09:30:04.233Z,1009.51
2023-05-09T09:31:04.240Z,1009.49
2023-05-09T09:32:04.232Z,1009.46
2023-05-09T09:33:04.241Z,1009.46
2023-05-09T09:34:04.188Z,1009.44
2023-05-09T09:35:04.182Z,1009.44
2023-05-09T09:36:04.165Z,1009.48
2023-05-09T09:37:04.142Z,1009.43
2023-05-09T09:38:04.125Z,1009.42
2023-05-09T09:39:04.126Z,1009.40
2023-05-09T09:40:04.093Z,1009.39
2023-05-09T09:41:04.086Z,1009.39
2023-05-09T09:42:04.068Z,1009.37
2023-05-09T09:43:04.044Z,1009.37
2023-05-09T09:44:04.059Z,1009.36
2023-05-09T09:45:04.029Z,1009.33
2023-05-09T09:46:04.081Z,1009.30
2023-05-09T09:47:04.006Z,1009.28
2023-05-09T09:48:04.086Z,1009.32
2023-05-09T09:49:03.988Z,1009.29
2023-05-09T09:50:03.966Z,1009.30
2023-05-09T09:51:03.940Z,1009.26
2023-05-09T09:52:03.943Z,1009.24
2023-05-09T09:53:03.935Z,1009.25
2023-05-09T09:54:03.913Z,1009.26
2023-05-09T09:55:03.893Z,1009.19
2023-05-09T09:56:03.877Z,1009.18
2023-05-09T09:57:03.860Z,1009.19
2023-05-09T09:58:03.858Z,1009.24
2023-05-09T09:59:03.888Z,1009.16
2023-05-09T10:00:03.820Z,1009.17
2023-05-09T10:01:03.822Z,1009.17
2023-05-09T10:02:07.006Z,1009.11
2023-05-09T10:03:03.908Z,1009.10
2023-05-09T10:04:03.830Z,1009.09
2023-05-09T10:05:03.745Z,1009.07
2023-05-09T10:06:03.746Z,1009.01
2023-05-09T10:07:03.765Z,1009.04
2023-05-09T10:08:03.745Z,1009.07
2023-05-09T10:09:03.690Z,1009.01
2023-05-09T10:10:03.682Z,1009.04
2023-05-09T10:11:03.666Z,1009.01
2023-05-09T10:12:03.663Z,1009.00
2023-05-09T10:13:03.699Z,1009.00
2023-05-09T10:14:03.635Z,1008.99
2023-05-09T10:15:03.623Z,1008.98
2023-05-09T10:16:03.678Z,1009.00
2023-05-09T10:17:03.742Z,1008.98
2023-05-09T10:18:03.707Z,1008.98
2023-05-09T10:19:03.625Z,1008.99
2023-05-09T10:20:03.555Z,1008.94
2023-05-09T10:21:03.609Z,1008.94
2023-05-09T10:22:03.532Z,1008.87
2023-05-09T10:23:03.516Z,1008.88
2023-05-09T10:24:03.493Z,1008.85
2023-05-09T10:25:03.562Z,1008.86
2023-05-09T10:26:03.506Z,1008.85
2023-05-09T10:27:03.481Z,1008.82
2023-05-09T10:28:03.439Z,1008.82
2023-05-09T10:29:03.420Z,1008.79
2023-05-09T10:30:03.445Z,1008.77
2023-05-09T10:31:03.506Z,1008.74
2023-05-09T10:32:03.412Z,1008.71
2023-05-09T10:33:03.442Z,1008.72
2023-05-09T10:34:03.364Z,1008.67
2023-05-09T10:35:03.354Z,1008.68
2023-05-09T10:36:03.327Z,1008.66
2023-05-09T10:37:03.305Z,1008.62
2023-05-09T10:38:03.304Z,1008.60
2023-05-09T10:39:03.297Z,1008.61
2023-05-09T10:40:03.302Z,1008.64
2023-05-09T10:41:03.253Z,1008.62
2023-05-09T10:42:03.248Z,1008.64
2023-05-09T10:43:03.229Z,1008.56
2023-05-09T10:44:03.261Z,1008.53
2023-05-09T10:45:03.206Z,1008.55
2023-05-09T10:46:03.258Z,1008.56
2023-05-09T10:47:03.208Z,1008.51
2023-05-09T10:48:03.268Z,1008.52
2023-05-09T10:49:03.214Z,1008.49
2023-05-09T10:50:03.145Z,1008.49
2023-05-09T10:51:03.135Z,1008.46
2023-05-09T10:52:03.129Z,1008.41
2023-05-09T10:53:03.153Z,1008.40
2023-05-09T10:54:03.133Z,1008.42
2023-05-09T10:55:03.094Z,1008.41
2023-05-09T10:56:03.063Z,1008.37
2023-05-09T10:57:03.035Z,1008.38
2023-05-09T10:58:03.033Z,1008.31
2023-05-09T10:59:03.022Z,1008.35
2023-05-09T11:00:03.033Z,1008.35
2023-05-09T11:01:02.985Z,1008.28
2023-05-09T11:02:03.024Z,1008.26
2023-05-09T11:03:03.050Z,1008.21
2023-05-09T11:04:03.019Z,1008.21
2023-05-09T11:05:02.925Z,1008.18
2023-05-09T11:06:02.921Z,1008.18
2023-05-09T11:07:02.935Z,1008.15
2023-05-09T11:08:02.960Z,1008.14
2023-05-09T11:09:02.881Z,1008.04
2023-05-09T11:10:02.884Z,1008.12
2023-05-09T11:11:02.859Z,1008.04
2023-05-09T11:12:02.850Z,1008.05
2023-05-09T11:13:02.844Z,1008.00
2023-05-09T11:14:02.825Z,1008.00
2023-05-09T11:15:02.788Z,1008.00
2023-05-09T11:16:02.847Z,1007.93
2023-05-09T11:17:02.796Z,1007.88
2023-05-09T11:18:02.845Z,1007.87
2023-05-09T11:19:02.740Z,1007.82
2023-05-09T11:20:02.744Z,1007.89
2023-05-09T11:21:02.767Z,1007.80
2023-05-09T11:22:02.733Z,1007.84
2023-05-09T11:23:02.694Z,1007.80
2023-05-09T11:24:02.688Z,1007.80
2023-05-09T11:25:02.684Z,1007.81
2023-05-09T11:26:02.686Z,1007.78
2023-05-09T11:27:02.637Z,1007.81
2023-05-09T11:28:02.765Z,1007.78
2023-05-09T11:29:02.625Z,1007.81
2023-05-09T11:30:02.610Z,1007.75
2023-05-09T11:31:02.636Z,1007.72
2023-05-09T11:32:02.637Z,1007.74
2023-05-09T11:33:02.609Z,1007.71
2023-05-09T11:34:02.564Z,1007.64
2023-05-09T11:35:02.561Z,1007.59
2023-05-09T11:36:02.550Z,1007.64
2023-05-09T11:37:02.515Z,1007.63
2023-05-09T11:38:02.537Z,1007.53
2023-05-09T11:39:02.482Z,1007.56
2023-05-09T11:40:02.498Z,1007.51
2023-05-09T11:41:02.473Z,1007.49
2023-05-09T11:42:02.462Z,1007.50
2023-05-09T11:43:02.450Z,1007.45
2023-05-09T11:44:02.418Z,1007.46
2023-05-09T11:45:02.443Z,1007.40
2023-05-09T11:46:02.442Z,1007.38
2023-05-09T11:47:02.389Z,1007.34
2023-05-09T11:48:02.410Z,1007.34
2023-05-09T11:49:02.417Z,1007.31
2023-05-09T11:50:02.353Z,1007.29
2023-05-09T11:51:02.337Z,1007.29
2023-05-09T11:52:02.309Z,1007.27
2023-05-09T11:53:02.317Z,1007.33
2023-05-09T11:54:02.339Z,1007.33
2023-05-09T11:55:02.320Z,1007.34
2023-05-09T11:56:02.260Z,1007.26
2023-05-09T11:57:02.258Z,1007.17
2023-05-09T11:58:02.226Z,1007.20
2023-05-09T11:59:02.266Z,1007.20
2023-05-09T12:00:02.226Z,1007.25
2023-05-09T12:01:02.207Z,1007.22
2023-05-09T12:02:02.214Z,1007.19
2023-05-09T12:03:02.334Z,1007.17
2023-05-09T12:04:02.251Z,1007.18
2023-05-09T12:05:02.151Z,1007.11